DNO455 HKJK-HDAM
Flight info
| Callsign | DNO455 |
|---|---|
| Flight time | 2h 6m |
| Altitude | 35000 |
| Route | ATUDU1D WAV UM997 ASTAR ASTAR1U |
| Aircraft | A320/M-SDE3FGHIRWY/LB1 |
Departure
| Time | 2026-04-26 17:01 |
|---|---|
| Airport | Jomo Kenyatta International Airport (HKJK) |
Arrival
| Time | 2026-04-26 19:08 |
|---|---|
| Airport | Djibouti-Ambouli Airport (HDAM) |
| Time | Latitude | Longitude | Altitude | Speed | Heading |
|---|---|---|---|---|---|
| 2026-04-26 16:21 | -1.32956 | 36.92346 | 5325 ft | 0 kts | 122° |
| 2026-04-26 16:50 | -1.32955 | 36.92344 | 5317 ft | 2 kts | 122° |
| 2026-04-26 16:50 | -1.32941 | 36.92322 | 5320 ft | 4 kts | 119° |
| 2026-04-26 16:50 | -1.32929 | 36.92298 | 5318 ft | 4 kts | 114° |
| 2026-04-26 16:50 | -1.32919 | 36.92273 | 5316 ft | 4 kts | 99° |
| 2026-04-26 16:51 | -1.32921 | 36.92250 | 5324 ft | 4 kts | 44° |
| 2026-04-26 16:51 | -1.32925 | 36.92246 | 5324 ft | 0 kts | 28° |
| 2026-04-26 16:54 | -1.32923 | 36.92247 | 5324 ft | 1 kts | 28° |
| 2026-04-26 16:54 | -1.32905 | 36.92257 | 5324 ft | 6 kts | 28° |
| 2026-04-26 16:54 | -1.32853 | 36.92252 | 5319 ft | 10 kts | 321° |
| 2026-04-26 16:54 | -1.32801 | 36.92207 | 5324 ft | 10 kts | 318° |
| 2026-04-26 16:55 | -1.32793 | 36.92153 | 5320 ft | 7 kts | 248° |
| 2026-04-26 16:55 | -1.32826 | 36.92102 | 5319 ft | 12 kts | 233° |
| 2026-04-26 16:55 | -1.32879 | 36.92031 | 5324 ft | 14 kts | 234° |
| 2026-04-26 16:55 | -1.32898 | 36.91952 | 5337 ft | 10 kts | 280° |
| 2026-04-26 16:56 | -1.32876 | 36.91816 | 5335 ft | 11 kts | 279° |
| 2026-04-26 16:56 | -1.32872 | 36.91745 | 5337 ft | 10 kts | 280° |
| 2026-04-26 16:56 | -1.32836 | 36.91704 | 5337 ft | 0 kts | 328° |
| 2026-04-26 17:00 | -1.32747 | 36.91664 | 5338 ft | 14 kts | 14° |
| 2026-04-26 17:00 | -1.32386 | 36.92149 | 5319 ft | 100 kts | 53° |
| 2026-04-26 17:00 | -1.31868 | 36.92858 | 5310 ft | 151 kts | 54° |
| 2026-04-26 17:01 | -1.31163 | 36.93826 | 5342 ft | 190 kts | 54° |
| 2026-04-26 17:01 | -1.30384 | 36.94873 | 6146 ft | 181 kts | 54° |
| 2026-04-26 17:01 | -1.29605 | 36.95867 | 6890 ft | 181 kts | 53° |
| 2026-04-26 17:01 | -1.28824 | 36.96839 | 7497 ft | 179 kts | 53° |
| 2026-04-26 17:02 | -1.28044 | 36.97833 | 7880 ft | 183 kts | 55° |
| 2026-04-26 17:02 | -1.27453 | 36.98934 | 8274 ft | 184 kts | 77° |
| 2026-04-26 17:02 | -1.27347 | 37.00206 | 8571 ft | 190 kts | 92° |
| 2026-04-26 17:02 | -1.27390 | 37.01604 | 8728 ft | 211 kts | 93° |
| 2026-04-26 17:03 | -1.27443 | 37.03130 | 8865 ft | 228 kts | 94° |
| 2026-04-26 17:03 | -1.27489 | 37.04797 | 8994 ft | 244 kts | 93° |
| 2026-04-26 17:03 | -1.27545 | 37.06557 | 9114 ft | 267 kts | 93° |
| 2026-04-26 17:03 | -1.27612 | 37.08489 | 9356 ft | 285 kts | 93° |
| 2026-04-26 17:04 | -1.27697 | 37.10517 | 9943 ft | 295 kts | 93° |
| 2026-04-26 17:04 | -1.27781 | 37.12589 | 10380 ft | 308 kts | 92° |
| 2026-04-26 17:04 | -1.27689 | 37.14799 | 10514 ft | 331 kts | 76° |
| 2026-04-26 17:04 | -1.26666 | 37.16925 | 10640 ft | 351 kts | 55° |
| 2026-04-26 17:05 | -1.25017 | 37.18788 | 10827 ft | 365 kts | 44° |
| 2026-04-26 17:05 | -1.23172 | 37.20550 | 11243 ft | 370 kts | 44° |
| 2026-04-26 17:05 | -1.21319 | 37.22352 | 11778 ft | 374 kts | 44° |
| 2026-04-26 17:05 | -1.19454 | 37.24174 | 12381 ft | 375 kts | 44° |
| 2026-04-26 17:06 | -1.17580 | 37.26001 | 12967 ft | 377 kts | 44° |
| 2026-04-26 17:06 | -1.15688 | 37.27836 | 13547 ft | 379 kts | 45° |
| 2026-04-26 17:06 | -1.13795 | 37.29683 | 14056 ft | 384 kts | 44° |
| 2026-04-26 17:06 | -1.11881 | 37.31537 | 14573 ft | 383 kts | 44° |
| 2026-04-26 17:07 | -1.09947 | 37.33404 | 15082 ft | 389 kts | 44° |
| 2026-04-26 17:07 | -1.08004 | 37.35277 | 15608 ft | 388 kts | 44° |
| 2026-04-26 17:07 | -1.06055 | 37.37159 | 16056 ft | 392 kts | 44° |
| 2026-04-26 17:07 | -1.04092 | 37.39052 | 16542 ft | 394 kts | 44° |
| 2026-04-26 17:08 | -1.02110 | 37.40957 | 17003 ft | 396 kts | 44° |
| 2026-04-26 17:08 | -1.00131 | 37.42855 | 17655 ft | 393 kts | 44° |
| 2026-04-26 17:08 | -0.98164 | 37.44751 | 18184 ft | 394 kts | 44° |
| 2026-04-26 17:08 | -0.96191 | 37.46660 | 18653 ft | 395 kts | 44° |
| 2026-04-26 17:09 | -0.94212 | 37.48575 | 19101 ft | 397 kts | 44° |
| 2026-04-26 17:09 | -0.92896 | 37.49847 | 19385 ft | 399 kts | 44° |
| 2026-04-26 17:09 | -0.90219 | 37.52435 | 19975 ft | 401 kts | 44° |
| 2026-04-26 17:09 | -0.88209 | 37.54378 | 20397 ft | 404 kts | 44° |
| 2026-04-26 17:10 | -0.86186 | 37.56334 | 20798 ft | 405 kts | 44° |
| 2026-04-26 17:10 | -0.84183 | 37.58271 | 21197 ft | 407 kts | 44° |
| 2026-04-26 17:10 | -0.82144 | 37.60243 | 21577 ft | 409 kts | 44° |
| 2026-04-26 17:10 | -0.80050 | 37.62172 | 21937 ft | 411 kts | 37° |
| 2026-04-26 17:11 | -0.77652 | 37.63735 | 22286 ft | 413 kts | 32° |
| 2026-04-26 17:11 | -0.75202 | 37.65251 | 22636 ft | 415 kts | 32° |
| 2026-04-26 17:11 | -0.72739 | 37.66767 | 22980 ft | 416 kts | 32° |
| 2026-04-26 17:11 | -0.70268 | 37.68282 | 23328 ft | 418 kts | 32° |
| 2026-04-26 17:12 | -0.65297 | 37.71331 | 23982 ft | 421 kts | 32° |
| 2026-04-26 17:12 | -0.62798 | 37.72863 | 24302 ft | 422 kts | 32° |
| 2026-04-26 17:13 | -0.57773 | 37.75942 | 24871 ft | 426 kts | 32° |
| 2026-04-26 17:13 | -0.55245 | 37.77493 | 25146 ft | 428 kts | 32° |
| 2026-04-26 17:13 | -0.50157 | 37.80620 | 25687 ft | 431 kts | 32° |
| 2026-04-26 17:14 | -0.47594 | 37.82198 | 25947 ft | 433 kts | 32° |
| 2026-04-26 17:14 | -0.42440 | 37.85369 | 26477 ft | 436 kts | 32° |
| 2026-04-26 17:14 | -0.39854 | 37.86955 | 26820 ft | 436 kts | 32° |
| 2026-04-26 17:15 | -0.34689 | 37.90126 | 27458 ft | 436 kts | 32° |
| 2026-04-26 17:15 | -0.32105 | 37.91716 | 27823 ft | 435 kts | 32° |
| 2026-04-26 17:15 | -0.29526 | 37.93303 | 28153 ft | 435 kts | 32° |
| 2026-04-26 17:16 | -0.26947 | 37.94888 | 28478 ft | 435 kts | 32° |
| 2026-04-26 17:16 | -0.24368 | 37.96471 | 28817 ft | 435 kts | 32° |
| 2026-04-26 17:16 | -0.21788 | 37.98054 | 29175 ft | 435 kts | 32° |
| 2026-04-26 17:16 | -0.19209 | 37.99639 | 29434 ft | 437 kts | 32° |
| 2026-04-26 17:17 | -0.16602 | 38.01240 | 29571 ft | 442 kts | 32° |
| 2026-04-26 17:17 | -0.13973 | 38.02856 | 29814 ft | 444 kts | 32° |
| 2026-04-26 17:17 | -0.11342 | 38.04476 | 30138 ft | 444 kts | 32° |
| 2026-04-26 17:17 | -0.08711 | 38.06096 | 30477 ft | 444 kts | 32° |
| 2026-04-26 17:18 | -0.06079 | 38.07711 | 30830 ft | 444 kts | 32° |
| 2026-04-26 17:18 | -0.03451 | 38.09321 | 31185 ft | 443 kts | 32° |
| 2026-04-26 17:18 | -0.00827 | 38.10934 | 31541 ft | 442 kts | 32° |
| 2026-04-26 17:18 | 0.01790 | 38.12545 | 31901 ft | 441 kts | 32° |
| 2026-04-26 17:19 | 0.07011 | 38.15749 | 32610 ft | 440 kts | 32° |
| 2026-04-26 17:19 | 0.09612 | 38.17348 | 32959 ft | 439 kts | 32° |
| 2026-04-26 17:19 | 0.12212 | 38.18946 | 33304 ft | 438 kts | 32° |
| 2026-04-26 17:20 | 0.14806 | 38.20538 | 33641 ft | 438 kts | 32° |
| 2026-04-26 17:20 | 0.15647 | 38.21054 | 33748 ft | 437 kts | 32° |
| 2026-04-26 17:20 | 0.19986 | 38.23718 | 34278 ft | 436 kts | 32° |
| 2026-04-26 17:20 | 0.22570 | 38.25305 | 34595 ft | 435 kts | 32° |
| 2026-04-26 17:21 | 0.25144 | 38.26884 | 34895 ft | 435 kts | 32° |
| 2026-04-26 17:21 | 0.27727 | 38.28470 | 34975 ft | 437 kts | 32° |
| 2026-04-26 17:21 | 0.32975 | 38.31703 | 34981 ft | 448 kts | 32° |
| 2026-04-26 17:22 | 0.37398 | 38.34424 | 34976 ft | 450 kts | 32° |
| 2026-04-26 17:22 | 0.42737 | 38.37704 | 34971 ft | 450 kts | 32° |
| 2026-04-26 17:23 | 0.48074 | 38.40982 | 34970 ft | 451 kts | 32° |
| 2026-04-26 17:23 | 0.53416 | 38.44261 | 34963 ft | 450 kts | 32° |
| 2026-04-26 17:24 | 0.58757 | 38.47540 | 34958 ft | 451 kts | 32° |
| 2026-04-26 17:24 | 0.64103 | 38.50826 | 34959 ft | 451 kts | 32° |
| 2026-04-26 17:25 | 0.69443 | 38.54109 | 34970 ft | 451 kts | 32° |
| 2026-04-26 17:25 | 0.74791 | 38.57400 | 34977 ft | 451 kts | 32° |
| 2026-04-26 17:26 | 0.80143 | 38.60683 | 34979 ft | 451 kts | 32° |
| 2026-04-26 17:26 | 0.85493 | 38.63969 | 34972 ft | 451 kts | 32° |
| 2026-04-26 17:27 | 0.90846 | 38.67263 | 34970 ft | 452 kts | 32° |
| 2026-04-26 17:27 | 0.96196 | 38.70553 | 34968 ft | 451 kts | 32° |
| 2026-04-26 17:28 | 1.01540 | 38.73840 | 34962 ft | 451 kts | 32° |
| 2026-04-26 17:28 | 1.06880 | 38.77121 | 34950 ft | 450 kts | 32° |
| 2026-04-26 17:29 | 1.11320 | 38.79849 | 34935 ft | 450 kts | 32° |
| 2026-04-26 17:29 | 1.17561 | 38.83680 | 34929 ft | 450 kts | 32° |
| 2026-04-26 17:30 | 1.22892 | 38.86959 | 34917 ft | 450 kts | 32° |
| 2026-04-26 17:30 | 1.28220 | 38.90237 | 34909 ft | 450 kts | 32° |
| 2026-04-26 17:31 | 1.33553 | 38.93515 | 34903 ft | 450 kts | 32° |
| 2026-04-26 17:31 | 1.38888 | 38.96794 | 34899 ft | 450 kts | 32° |
| 2026-04-26 17:32 | 1.44228 | 39.00082 | 34900 ft | 451 kts | 32° |
| 2026-04-26 17:32 | 1.49575 | 39.03368 | 34900 ft | 451 kts | 32° |
| 2026-04-26 17:33 | 1.54925 | 39.06652 | 34898 ft | 451 kts | 32° |
| 2026-04-26 17:34 | 1.62943 | 39.11583 | 34895 ft | 451 kts | 32° |
| 2026-04-26 17:34 | 1.68281 | 39.14869 | 34892 ft | 450 kts | 32° |
| 2026-04-26 17:35 | 1.73620 | 39.18152 | 34892 ft | 450 kts | 32° |
| 2026-04-26 17:35 | 1.78917 | 39.21406 | 34903 ft | 450 kts | 32° |
| 2026-04-26 17:36 | 1.84247 | 39.24679 | 34914 ft | 449 kts | 32° |
| 2026-04-26 17:36 | 1.89569 | 39.27956 | 34917 ft | 449 kts | 32° |
| 2026-04-26 17:37 | 1.94889 | 39.31236 | 34921 ft | 449 kts | 32° |
| 2026-04-26 17:37 | 2.00210 | 39.34513 | 34924 ft | 449 kts | 32° |
| 2026-04-26 17:38 | 2.08175 | 39.39411 | 34924 ft | 448 kts | 32° |
| 2026-04-26 17:38 | 2.13482 | 39.42678 | 34924 ft | 448 kts | 32° |
| 2026-04-26 17:39 | 2.18784 | 39.45941 | 34921 ft | 447 kts | 32° |
| 2026-04-26 17:39 | 2.24085 | 39.49205 | 34917 ft | 447 kts | 32° |
| 2026-04-26 17:40 | 2.28522 | 39.51944 | 34914 ft | 448 kts | 32° |
| 2026-04-26 17:40 | 2.34677 | 39.55741 | 34914 ft | 447 kts | 32° |
| 2026-04-26 17:41 | 2.39964 | 39.59006 | 34916 ft | 447 kts | 32° |
| 2026-04-26 17:41 | 2.45254 | 39.62262 | 34915 ft | 446 kts | 32° |
| 2026-04-26 17:42 | 2.50542 | 39.65522 | 34912 ft | 446 kts | 32° |
| 2026-04-26 17:42 | 2.55824 | 39.68789 | 34911 ft | 446 kts | 32° |
| 2026-04-26 17:43 | 2.61108 | 39.72046 | 34909 ft | 446 kts | 32° |
| 2026-04-26 17:43 | 2.66391 | 39.75303 | 34905 ft | 446 kts | 32° |
| 2026-04-26 17:44 | 2.71676 | 39.78569 | 34903 ft | 447 kts | 32° |
| 2026-04-26 17:44 | 2.76968 | 39.81833 | 34902 ft | 447 kts | 32° |
| 2026-04-26 17:45 | 2.82259 | 39.85094 | 34902 ft | 447 kts | 32° |
| 2026-04-26 17:45 | 2.87547 | 39.88360 | 34901 ft | 446 kts | 32° |
| 2026-04-26 17:46 | 2.92832 | 39.91627 | 34900 ft | 447 kts | 32° |
| 2026-04-26 17:46 | 2.98115 | 39.94896 | 34898 ft | 446 kts | 32° |
| 2026-04-26 17:47 | 3.02509 | 39.97610 | 34898 ft | 447 kts | 32° |
| 2026-04-26 17:47 | 3.08699 | 40.01425 | 34898 ft | 447 kts | 32° |
| 2026-04-26 17:48 | 3.13985 | 40.04691 | 34897 ft | 447 kts | 32° |
| 2026-04-26 17:48 | 3.19275 | 40.07959 | 34902 ft | 447 kts | 32° |
| 2026-04-26 17:49 | 3.24561 | 40.11230 | 34907 ft | 446 kts | 32° |
| 2026-04-26 17:49 | 3.29854 | 40.14494 | 34908 ft | 447 kts | 32° |
| 2026-04-26 17:50 | 3.35144 | 40.17767 | 34909 ft | 447 kts | 32° |
| 2026-04-26 17:50 | 3.40442 | 40.21042 | 34911 ft | 448 kts | 32° |
| 2026-04-26 17:51 | 3.45738 | 40.24319 | 34914 ft | 447 kts | 32° |
| 2026-04-26 17:51 | 3.51038 | 40.27590 | 34917 ft | 447 kts | 32° |
| 2026-04-26 17:52 | 3.56338 | 40.30864 | 34921 ft | 448 kts | 32° |
| 2026-04-26 17:52 | 3.61630 | 40.34146 | 34923 ft | 448 kts | 32° |
| 2026-04-26 17:53 | 3.66923 | 40.37425 | 34925 ft | 448 kts | 32° |
| 2026-04-26 17:54 | 3.74873 | 40.42347 | 34931 ft | 448 kts | 32° |
| 2026-04-26 17:54 | 3.80172 | 40.45625 | 34934 ft | 448 kts | 32° |
| 2026-04-26 17:55 | 3.85473 | 40.48901 | 34944 ft | 448 kts | 32° |
| 2026-04-26 17:55 | 3.90771 | 40.52184 | 34941 ft | 448 kts | 32° |
| 2026-04-26 17:56 | 3.96070 | 40.55465 | 34946 ft | 448 kts | 32° |
| 2026-04-26 17:56 | 4.01626 | 40.58270 | 34945 ft | 449 kts | 18° |
| 2026-04-26 17:57 | 4.07722 | 40.59692 | 34948 ft | 450 kts | 13° |
| 2026-04-26 17:57 | 4.13842 | 40.61039 | 34958 ft | 450 kts | 13° |
| 2026-04-26 17:58 | 4.26076 | 40.63746 | 34959 ft | 450 kts | 13° |
| 2026-04-26 17:59 | 4.35255 | 40.65762 | 34967 ft | 450 kts | 13° |
| 2026-04-26 17:59 | 4.41373 | 40.67107 | 34972 ft | 450 kts | 13° |
| 2026-04-26 18:00 | 4.47490 | 40.68456 | 34974 ft | 450 kts | 13° |
| 2026-04-26 18:00 | 4.53599 | 40.69808 | 34981 ft | 449 kts | 13° |
| 2026-04-26 18:01 | 4.59705 | 40.71149 | 34984 ft | 449 kts | 13° |
| 2026-04-26 18:01 | 4.65766 | 40.72480 | 34988 ft | 449 kts | 13° |
| 2026-04-26 18:02 | 4.69843 | 40.73376 | 34987 ft | 448 kts | 13° |
| 2026-04-26 18:02 | 4.77949 | 40.75162 | 34988 ft | 448 kts | 13° |
| 2026-04-26 18:03 | 4.84038 | 40.76515 | 35001 ft | 448 kts | 13° |
| 2026-04-26 18:03 | 4.90124 | 40.77870 | 34995 ft | 448 kts | 13° |
| 2026-04-26 18:04 | 4.96214 | 40.79208 | 34999 ft | 448 kts | 13° |
| 2026-04-26 18:05 | 5.04353 | 40.81009 | 35000 ft | 448 kts | 13° |
| 2026-04-26 18:05 | 5.10436 | 40.82359 | 35003 ft | 448 kts | 14° |
| 2026-04-26 18:06 | 5.16528 | 40.83700 | 35010 ft | 449 kts | 14° |
| 2026-04-26 18:06 | 5.22631 | 40.85051 | 35008 ft | 449 kts | 14° |
| 2026-04-26 18:07 | 5.28743 | 40.86405 | 35015 ft | 450 kts | 14° |
| 2026-04-26 18:07 | 5.34860 | 40.87764 | 35024 ft | 450 kts | 14° |
| 2026-04-26 18:08 | 5.40985 | 40.89125 | 35033 ft | 451 kts | 14° |
| 2026-04-26 18:08 | 5.47072 | 40.90479 | 35040 ft | 451 kts | 14° |
| 2026-04-26 18:09 | 5.53199 | 40.91838 | 35045 ft | 451 kts | 14° |
| 2026-04-26 18:09 | 5.59326 | 40.93190 | 35053 ft | 451 kts | 14° |
| 2026-04-26 18:10 | 5.65454 | 40.94549 | 35056 ft | 451 kts | 14° |
| 2026-04-26 18:10 | 5.71584 | 40.95910 | 35064 ft | 451 kts | 14° |
| 2026-04-26 18:11 | 5.77717 | 40.97273 | 35070 ft | 452 kts | 14° |
| 2026-04-26 18:11 | 5.83847 | 40.98636 | 35080 ft | 451 kts | 14° |
| 2026-04-26 18:12 | 5.89974 | 40.99998 | 35078 ft | 451 kts | 14° |
| 2026-04-26 18:12 | 5.96101 | 41.01363 | 35083 ft | 451 kts | 14° |
| 2026-04-26 18:13 | 6.02233 | 41.02727 | 35096 ft | 451 kts | 14° |
| 2026-04-26 18:13 | 6.08373 | 41.04087 | 35100 ft | 452 kts | 14° |
| 2026-04-26 18:14 | 6.14506 | 41.05451 | 35102 ft | 451 kts | 14° |
| 2026-04-26 18:14 | 6.20639 | 41.06811 | 35104 ft | 451 kts | 14° |
| 2026-04-26 18:15 | 6.26774 | 41.08182 | 35108 ft | 452 kts | 14° |
| 2026-04-26 18:15 | 6.32912 | 41.09545 | 35110 ft | 452 kts | 14° |
| 2026-04-26 18:16 | 6.39048 | 41.10914 | 35117 ft | 452 kts | 14° |
| 2026-04-26 18:16 | 6.48260 | 41.12960 | 35123 ft | 452 kts | 13° |
| 2026-04-26 18:17 | 6.54406 | 41.14332 | 35123 ft | 452 kts | 14° |
| 2026-04-26 18:17 | 6.60546 | 41.15710 | 35136 ft | 452 kts | 14° |
| 2026-04-26 18:18 | 6.66688 | 41.17089 | 35136 ft | 452 kts | 14° |
| 2026-04-26 18:18 | 6.72833 | 41.18461 | 35143 ft | 453 kts | 14° |
| 2026-04-26 18:19 | 6.78979 | 41.19837 | 35150 ft | 453 kts | 14° |
| 2026-04-26 18:19 | 6.85131 | 41.21214 | 35153 ft | 452 kts | 14° |
| 2026-04-26 18:20 | 6.91271 | 41.22592 | 35153 ft | 453 kts | 14° |
| 2026-04-26 18:20 | 6.96383 | 41.23737 | 35157 ft | 452 kts | 13° |
| 2026-04-26 18:21 | 7.03557 | 41.25340 | 35159 ft | 452 kts | 14° |
| 2026-04-26 18:21 | 7.09699 | 41.26719 | 35166 ft | 452 kts | 13° |
| 2026-04-26 18:22 | 7.15838 | 41.28092 | 35165 ft | 452 kts | 13° |
| 2026-04-26 18:22 | 7.21969 | 41.29470 | 35168 ft | 451 kts | 13° |
| 2026-04-26 18:23 | 7.28101 | 41.30846 | 35169 ft | 451 kts | 13° |
| 2026-04-26 18:23 | 7.34226 | 41.32220 | 35171 ft | 451 kts | 13° |
| 2026-04-26 18:24 | 7.40356 | 41.33596 | 35171 ft | 451 kts | 13° |
| 2026-04-26 18:24 | 7.46476 | 41.34974 | 35174 ft | 451 kts | 13° |
| 2026-04-26 18:25 | 7.52598 | 41.36356 | 35180 ft | 451 kts | 13° |
| 2026-04-26 18:25 | 7.58713 | 41.37738 | 35184 ft | 450 kts | 14° |
| 2026-04-26 18:26 | 7.64824 | 41.39118 | 35187 ft | 450 kts | 13° |
| 2026-04-26 18:26 | 7.70935 | 41.40493 | 35186 ft | 450 kts | 13° |
| 2026-04-26 18:27 | 7.77040 | 41.41865 | 35186 ft | 450 kts | 13° |
| 2026-04-26 18:27 | 7.83154 | 41.43238 | 35185 ft | 450 kts | 13° |
| 2026-04-26 18:28 | 7.89259 | 41.44617 | 35185 ft | 450 kts | 13° |
| 2026-04-26 18:28 | 7.95365 | 41.45994 | 35187 ft | 450 kts | 13° |
| 2026-04-26 18:29 | 8.01434 | 41.47366 | 35190 ft | 450 kts | 13° |
| 2026-04-26 18:29 | 8.07537 | 41.48748 | 35195 ft | 450 kts | 13° |
| 2026-04-26 18:30 | 8.13646 | 41.50126 | 35197 ft | 450 kts | 13° |
| 2026-04-26 18:30 | 8.19744 | 41.51500 | 35193 ft | 449 kts | 13° |
| 2026-04-26 18:31 | 8.25839 | 41.52874 | 35192 ft | 449 kts | 13° |
| 2026-04-26 18:31 | 8.31938 | 41.54255 | 35192 ft | 449 kts | 13° |
| 2026-04-26 18:32 | 8.38039 | 41.55641 | 35193 ft | 449 kts | 13° |
| 2026-04-26 18:32 | 8.44134 | 41.57029 | 35193 ft | 449 kts | 13° |
| 2026-04-26 18:33 | 8.50229 | 41.58411 | 35194 ft | 449 kts | 13° |
| 2026-04-26 18:33 | 8.56333 | 41.59798 | 35196 ft | 449 kts | 13° |
| 2026-04-26 18:34 | 8.62436 | 41.61191 | 35198 ft | 449 kts | 13° |
| 2026-04-26 18:34 | 8.68535 | 41.62575 | 35200 ft | 449 kts | 13° |
| 2026-04-26 18:35 | 8.74642 | 41.63966 | 35196 ft | 450 kts | 13° |
| 2026-04-26 18:35 | 8.80755 | 41.65355 | 35198 ft | 450 kts | 13° |
| 2026-04-26 18:36 | 8.86865 | 41.66742 | 35195 ft | 450 kts | 13° |
| 2026-04-26 18:36 | 8.92969 | 41.68132 | 35191 ft | 450 kts | 13° |
| 2026-04-26 18:37 | 8.99080 | 41.69528 | 35192 ft | 450 kts | 13° |
| 2026-04-26 18:37 | 9.05195 | 41.70922 | 35201 ft | 451 kts | 13° |
| 2026-04-26 18:38 | 9.11309 | 41.72313 | 35211 ft | 451 kts | 13° |
| 2026-04-26 18:38 | 9.17428 | 41.73706 | 35217 ft | 451 kts | 13° |
| 2026-04-26 18:39 | 9.23546 | 41.75100 | 35216 ft | 451 kts | 13° |
| 2026-04-26 18:39 | 9.29662 | 41.76507 | 35216 ft | 451 kts | 13° |
| 2026-04-26 18:40 | 9.35781 | 41.77908 | 35219 ft | 451 kts | 13° |
| 2026-04-26 18:40 | 9.41898 | 41.79298 | 35219 ft | 451 kts | 13° |
| 2026-04-26 18:41 | 9.48022 | 41.80693 | 35214 ft | 451 kts | 13° |
| 2026-04-26 18:41 | 9.54135 | 41.82092 | 35211 ft | 450 kts | 13° |
| 2026-04-26 18:42 | 9.60252 | 41.83492 | 35210 ft | 451 kts | 13° |
| 2026-04-26 18:42 | 9.66119 | 41.85644 | 35206 ft | 450 kts | 30° |
| 2026-04-26 18:43 | 9.71366 | 41.89095 | 35204 ft | 449 kts | 33° |
| 2026-04-26 18:43 | 9.76554 | 41.92552 | 35203 ft | 449 kts | 33° |
| 2026-04-26 18:44 | 9.81822 | 41.96048 | 35192 ft | 449 kts | 33° |
| 2026-04-26 18:44 | 9.87047 | 41.99523 | 35186 ft | 449 kts | 33° |
| 2026-04-26 18:45 | 9.92269 | 42.02997 | 35182 ft | 449 kts | 33° |
| 2026-04-26 18:45 | 9.97457 | 42.06452 | 35176 ft | 449 kts | 33° |
| 2026-04-26 18:46 | 10.02682 | 42.09931 | 35172 ft | 449 kts | 33° |
| 2026-04-26 18:46 | 10.07905 | 42.13421 | 35166 ft | 449 kts | 33° |
| 2026-04-26 18:47 | 10.13122 | 42.16912 | 34955 ft | 449 kts | 33° |
| 2026-04-26 18:47 | 10.15730 | 42.18656 | 34562 ft | 449 kts | 33° |
| 2026-04-26 18:47 | 10.18346 | 42.20398 | 34136 ft | 450 kts | 32° |
| 2026-04-26 18:48 | 10.20081 | 42.21551 | 33855 ft | 450 kts | 32° |
| 2026-04-26 18:48 | 10.22704 | 42.23296 | 33431 ft | 451 kts | 33° |
| 2026-04-26 18:48 | 10.25332 | 42.25047 | 32980 ft | 452 kts | 33° |
| 2026-04-26 18:48 | 10.27962 | 42.26801 | 32513 ft | 453 kts | 33° |
| 2026-04-26 18:49 | 10.30598 | 42.28562 | 32010 ft | 453 kts | 33° |
| 2026-04-26 18:49 | 10.33230 | 42.30323 | 31513 ft | 454 kts | 33° |
| 2026-04-26 18:49 | 10.35868 | 42.32088 | 31008 ft | 455 kts | 33° |
| 2026-04-26 18:49 | 10.38516 | 42.33857 | 30499 ft | 456 kts | 34° |
| 2026-04-26 18:50 | 10.41203 | 42.35652 | 29966 ft | 457 kts | 34° |
| 2026-04-26 18:50 | 10.43862 | 42.37433 | 29422 ft | 458 kts | 34° |
| 2026-04-26 18:50 | 10.46523 | 42.39219 | 28834 ft | 460 kts | 34° |
| 2026-04-26 18:50 | 10.49163 | 42.40988 | 28276 ft | 462 kts | 34° |
| 2026-04-26 18:51 | 10.51850 | 42.42788 | 27695 ft | 464 kts | 34° |
| 2026-04-26 18:51 | 10.54547 | 42.44594 | 27074 ft | 465 kts | 34° |
| 2026-04-26 18:51 | 10.57241 | 42.46395 | 26342 ft | 462 kts | 34° |
| 2026-04-26 18:51 | 10.59915 | 42.48181 | 25593 ft | 458 kts | 33° |
| 2026-04-26 18:52 | 10.62563 | 42.49951 | 24835 ft | 454 kts | 34° |
| 2026-04-26 18:52 | 10.65209 | 42.51677 | 24096 ft | 451 kts | 30° |
| 2026-04-26 18:52 | 10.67998 | 42.53109 | 23339 ft | 447 kts | 26° |
| 2026-04-26 18:52 | 10.70787 | 42.54483 | 22592 ft | 444 kts | 26° |
| 2026-04-26 18:53 | 10.73557 | 42.55846 | 21831 ft | 440 kts | 26° |
| 2026-04-26 18:53 | 10.76300 | 42.57197 | 21084 ft | 436 kts | 26° |
| 2026-04-26 18:53 | 10.79022 | 42.58536 | 20307 ft | 433 kts | 26° |
| 2026-04-26 18:53 | 10.81727 | 42.59870 | 19479 ft | 431 kts | 27° |
| 2026-04-26 18:54 | 10.84419 | 42.61198 | 18652 ft | 429 kts | 27° |
| 2026-04-26 18:54 | 10.87097 | 42.62520 | 17822 ft | 427 kts | 27° |
| 2026-04-26 18:54 | 10.89760 | 42.63833 | 16996 ft | 424 kts | 27° |
| 2026-04-26 18:54 | 10.92412 | 42.65140 | 16168 ft | 422 kts | 27° |
| 2026-04-26 18:55 | 10.95040 | 42.66436 | 15464 ft | 418 kts | 27° |
| 2026-04-26 18:55 | 10.97635 | 42.67718 | 14851 ft | 412 kts | 27° |
| 2026-04-26 18:55 | 11.00190 | 42.68982 | 14316 ft | 405 kts | 27° |
| 2026-04-26 18:55 | 11.02704 | 42.70226 | 13764 ft | 398 kts | 27° |
| 2026-04-26 18:56 | 11.05176 | 42.71446 | 13235 ft | 391 kts | 27° |
| 2026-04-26 18:56 | 11.07595 | 42.72640 | 12800 ft | 382 kts | 27° |
| 2026-04-26 18:56 | 11.09967 | 42.73813 | 12226 ft | 377 kts | 27° |
| 2026-04-26 18:56 | 11.12315 | 42.74976 | 11610 ft | 373 kts | 27° |
| 2026-04-26 18:57 | 11.14639 | 42.76125 | 10979 ft | 370 kts | 27° |
| 2026-04-26 18:57 | 11.16170 | 42.76882 | 10545 ft | 369 kts | 26° |
| 2026-04-26 18:57 | 11.19214 | 42.78386 | 10140 ft | 354 kts | 27° |
| 2026-04-26 18:57 | 11.21381 | 42.79455 | 10016 ft | 339 kts | 27° |
| 2026-04-26 18:58 | 11.23479 | 42.80491 | 9743 ft | 332 kts | 26° |
| 2026-04-26 18:58 | 11.25545 | 42.81511 | 9355 ft | 328 kts | 27° |
| 2026-04-26 18:58 | 11.27535 | 42.82494 | 9176 ft | 307 kts | 27° |
| 2026-04-26 18:58 | 11.29413 | 42.83420 | 8796 ft | 296 kts | 27° |
| 2026-04-26 18:59 | 11.31249 | 42.84330 | 8246 ft | 292 kts | 27° |
| 2026-04-26 18:59 | 11.33065 | 42.85235 | 7715 ft | 291 kts | 27° |
| 2026-04-26 18:59 | 11.34879 | 42.86137 | 7427 ft | 289 kts | 27° |
| 2026-04-26 18:59 | 11.36681 | 42.87029 | 7123 ft | 287 kts | 27° |
| 2026-04-26 19:00 | 11.38470 | 42.87918 | 6804 ft | 285 kts | 27° |
| 2026-04-26 19:00 | 11.40244 | 42.88805 | 6467 ft | 283 kts | 27° |
| 2026-04-26 19:00 | 11.42058 | 42.89584 | 6152 ft | 283 kts | 17° |
| 2026-04-26 19:00 | 11.43999 | 42.89888 | 5830 ft | 283 kts | 2° |
| 2026-04-26 19:01 | 11.45963 | 42.89907 | 5525 ft | 281 kts | 1° |
| 2026-04-26 19:01 | 11.47873 | 42.89926 | 5393 ft | 266 kts | 1° |
| 2026-04-26 19:01 | 11.49666 | 42.89947 | 5226 ft | 251 kts | 2° |
| 2026-04-26 19:01 | 11.51382 | 42.89969 | 5011 ft | 239 kts | 2° |
| 2026-04-26 19:02 | 11.52972 | 42.90136 | 4874 ft | 221 kts | 21° |
| 2026-04-26 19:02 | 11.54204 | 42.90916 | 4754 ft | 206 kts | 49° |
| 2026-04-26 19:02 | 11.54914 | 42.92111 | 4604 ft | 193 kts | 74° |
| 2026-04-26 19:02 | 11.55064 | 42.93007 | 4408 ft | 190 kts | 90° |
| 2026-04-26 19:03 | 11.55034 | 42.94783 | 4006 ft | 186 kts | 91° |
| 2026-04-26 19:03 | 11.55014 | 42.96053 | 3989 ft | 173 kts | 91° |
| 2026-04-26 19:03 | 11.54995 | 42.97264 | 3994 ft | 170 kts | 91° |
| 2026-04-26 19:03 | 11.54979 | 42.98471 | 3880 ft | 171 kts | 91° |
| 2026-04-26 19:04 | 11.54963 | 42.99707 | 3517 ft | 176 kts | 90° |
| 2026-04-26 19:04 | 11.54945 | 43.00964 | 3201 ft | 178 kts | 90° |
| 2026-04-26 19:04 | 11.54927 | 43.02218 | 2901 ft | 177 kts | 90° |
| 2026-04-26 19:04 | 11.54910 | 43.03469 | 2611 ft | 176 kts | 90° |
| 2026-04-26 19:05 | 11.54875 | 43.05894 | 2073 ft | 162 kts | 90° |
| 2026-04-26 19:05 | 11.54859 | 43.07003 | 1804 ft | 152 kts | 90° |
| 2026-04-26 19:05 | 11.54844 | 43.08045 | 1584 ft | 144 kts | 90° |
| 2026-04-26 19:06 | 11.54831 | 43.09051 | 1349 ft | 140 kts | 89° |
| 2026-04-26 19:06 | 11.54821 | 43.10038 | 1120 ft | 139 kts | 90° |
| 2026-04-26 19:06 | 11.54796 | 43.11021 | 885 ft | 138 kts | 91° |
| 2026-04-26 19:06 | 11.54773 | 43.11998 | 647 ft | 137 kts | 90° |
| 2026-04-26 19:07 | 11.54770 | 43.12970 | 464 ft | 137 kts | 89° |
| 2026-04-26 19:07 | 11.54762 | 43.13944 | 226 ft | 137 kts | 89° |
| 2026-04-26 19:07 | 11.54748 | 43.14911 | 72 ft | 129 kts | 90° |
| 2026-04-26 19:07 | 11.54737 | 43.15709 | 63 ft | 90 kts | 90° |
| 2026-04-26 19:08 | 11.54729 | 43.16179 | 61 ft | 45 kts | 91° |
| 2026-04-26 19:08 | 11.54728 | 43.16373 | 58 ft | 15 kts | 88° |
| 2026-04-26 19:08 | 11.54814 | 43.16416 | 60 ft | 17 kts | 1° |
| 2026-04-26 19:08 | 11.54933 | 43.16417 | 60 ft | 16 kts | 0° |
| 2026-04-26 19:09 | 11.54989 | 43.16348 | 52 ft | 16 kts | 270° |
| 2026-04-26 19:09 | 11.54990 | 43.16227 | 57 ft | 18 kts | 270° |
| 2026-04-26 19:09 | 11.54991 | 43.16090 | 56 ft | 21 kts | 271° |
| 2026-04-26 19:09 | 11.54994 | 43.15936 | 58 ft | 23 kts | 271° |
| 2026-04-26 19:10 | 11.54997 | 43.15764 | 57 ft | 25 kts | 271° |
| 2026-04-26 19:10 | 11.54998 | 43.15577 | 60 ft | 27 kts | 270° |
| 2026-04-26 19:10 | 11.55001 | 43.15413 | 60 ft | 19 kts | 271° |
| 2026-04-26 19:10 | 11.55004 | 43.15282 | 57 ft | 17 kts | 269° |
| 2026-04-26 19:11 | 11.55003 | 43.15194 | 58 ft | 2 kts | 270° |
| 2026-04-26 19:11 | 11.55003 | 43.15193 | 60 ft | 0 kts | 271° |
| 2026-04-26 19:15 | 11.55004 | 43.15177 | 60 ft | 4 kts | 271° |
| 2026-04-26 19:15 | 11.55004 | 43.15128 | 60 ft | 9 kts | 271° |
| 2026-04-26 19:15 | 11.55004 | 43.15063 | 57 ft | 9 kts | 268° |
| 2026-04-26 19:15 | 11.55003 | 43.14994 | 60 ft | 10 kts | 274° |
| 2026-04-26 19:16 | 11.55045 | 43.14941 | 57 ft | 10 kts | 342° |
| 2026-04-26 19:16 | 11.55108 | 43.14939 | 57 ft | 6 kts | 0° |
| 2026-04-26 19:16 | 11.55131 | 43.14939 | 59 ft | 0 kts | 0° |